createdAt,value
2023-01-19T00:00:49.885Z,5.37
2023-01-19T00:03:17.949Z,5.44
2023-01-19T00:05:44.876Z,5.51
2023-01-19T00:08:17.729Z,5.55
2023-01-19T00:10:48.903Z,5.55
2023-01-19T00:13:15.754Z,5.60
2023-01-19T00:15:42.372Z,5.60
2023-01-19T00:18:10.832Z,5.60
2023-01-19T00:20:38.504Z,5.59
2023-01-19T00:23:05.310Z,5.56
2023-01-19T00:25:32.177Z,5.51
2023-01-19T00:28:01.351Z,5.49
2023-01-19T00:30:28.759Z,5.50
2023-01-19T00:32:55.609Z,5.53
2023-01-19T00:35:22.273Z,5.54
2023-01-19T00:37:49.000Z,5.54
2023-01-19T00:40:15.770Z,5.55
2023-01-19T00:42:45.566Z,5.55
2023-01-19T00:45:14.573Z,5.55
2023-01-19T00:47:41.389Z,5.55
2023-01-19T00:50:09.157Z,5.54
2023-01-19T00:52:35.827Z,5.54
2023-01-19T00:55:02.494Z,5.56
2023-01-19T00:57:29.621Z,5.59
2023-01-19T00:59:56.484Z,5.62
2023-01-19T01:02:23.391Z,5.64
2023-01-19T01:04:54.861Z,5.64
2023-01-19T01:07:22.340Z,5.63
2023-01-19T01:09:49.039Z,5.62
2023-01-19T01:12:15.711Z,5.59
2023-01-19T01:14:42.524Z,5.56
2023-01-19T01:17:11.389Z,5.52
2023-01-19T01:19:38.489Z,5.48
2023-01-19T01:22:05.319Z,5.45
2023-01-19T01:24:32.705Z,5.40
2023-01-19T01:26:59.429Z,5.36
2023-01-19T01:29:26.460Z,5.26
2023-01-19T01:31:53.250Z,5.25
2023-01-19T02:17:58.632Z,4.99
2023-01-19T02:20:26.636Z,5.07
2023-01-19T02:22:53.395Z,5.06
2023-01-19T02:25:20.597Z,5.06
2023-01-19T02:27:47.885Z,5.05
2023-01-19T02:30:16.555Z,5.03
2023-01-19T02:32:43.701Z,5.00
2023-01-19T02:35:11.442Z,4.97
2023-01-19T05:01:11.167Z,4.01
2023-01-19T05:03:37.943Z,4.09
2023-01-19T05:06:04.956Z,4.07
2023-01-19T05:08:31.676Z,4.00
2023-01-19T05:10:58.406Z,3.87
2023-01-19T05:13:25.186Z,3.83
2023-01-19T05:15:51.798Z,3.73
2023-01-19T05:18:18.525Z,3.67
2023-01-19T05:20:45.262Z,3.64
2023-01-19T05:23:12.012Z,3.66
2023-01-19T05:25:38.650Z,3.68
2023-01-19T05:28:05.389Z,3.70
2023-01-19T05:30:32.141Z,3.72
2023-01-19T05:32:59.318Z,3.75
2023-01-19T05:35:35.317Z,3.72
2023-01-19T05:38:02.764Z,3.75
2023-01-19T05:40:29.460Z,3.73
2023-01-19T05:43:01.042Z,3.71
2023-01-19T05:45:28.491Z,3.72
2023-01-19T05:47:55.319Z,3.73
2023-01-19T05:50:21.946Z,3.73
2023-01-19T05:52:48.845Z,3.76
2023-01-19T05:55:16.589Z,3.80
2023-01-19T05:57:43.449Z,3.84
2023-01-19T06:00:10.717Z,3.87
2023-01-19T06:02:37.485Z,3.92
2023-01-19T06:05:04.616Z,3.97
2023-01-19T06:07:31.851Z,4.02
2023-01-19T06:09:58.762Z,4.06
2023-01-19T06:12:25.474Z,4.09
2023-01-19T06:14:52.187Z,4.12
2023-01-19T06:17:19.033Z,4.15
2023-01-19T06:19:45.662Z,4.17
2023-01-19T06:22:12.684Z,4.17
2023-01-19T06:24:39.349Z,4.17
2023-01-19T06:27:06.609Z,4.17
2023-01-19T06:29:33.395Z,4.18
2023-01-19T06:32:00.167Z,4.19
2023-01-19T06:34:28.932Z,4.23
2023-01-19T06:36:56.393Z,4.25
2023-01-19T06:39:23.079Z,4.32
2023-01-19T06:41:49.862Z,4.37
2023-01-19T06:44:16.656Z,4.42
2023-01-19T06:46:43.415Z,4.47
2023-01-19T06:49:10.075Z,4.51
2023-01-19T06:51:36.793Z,4.55
2023-01-19T06:54:03.547Z,4.60
2023-01-19T06:56:30.261Z,4.65
2023-01-19T06:58:57.005Z,4.71
2023-01-19T07:01:23.759Z,4.76
2023-01-19T07:03:50.471Z,4.82
2023-01-19T07:06:17.156Z,4.87
2023-01-19T07:08:44.001Z,4.90
2023-01-19T07:11:26.597Z,4.91
2023-01-19T07:13:57.304Z,4.85
2023-01-19T07:16:24.235Z,4.71
2023-01-19T07:18:51.095Z,4.57
2023-01-19T07:21:17.745Z,4.45
2023-01-19T07:23:44.547Z,4.37
2023-01-19T07:26:11.187Z,4.28
2023-01-19T07:28:37.921Z,4.19
2023-01-19T07:31:05.216Z,4.07
2023-01-19T07:33:31.998Z,3.95
2023-01-19T07:35:58.733Z,3.85
2023-01-19T07:38:25.558Z,3.79
2023-01-19T07:40:52.156Z,3.75
2023-01-19T07:43:18.809Z,3.69
2023-01-19T07:45:45.620Z,3.65
2023-01-19T07:48:12.457Z,3.60
2023-01-19T07:50:39.148Z,3.54
2023-01-19T07:53:06.425Z,3.50
2023-01-19T07:55:33.125Z,3.44
2023-01-19T07:57:59.856Z,3.46
2023-01-19T08:00:26.685Z,3.45
2023-01-19T08:02:53.910Z,3.44
2023-01-19T08:05:20.850Z,3.44
2023-01-19T08:07:48.388Z,3.43
2023-01-19T08:10:15.471Z,3.43
2023-01-19T08:12:42.680Z,3.44
2023-01-19T08:15:10.323Z,3.47
2023-01-19T08:17:37.196Z,3.49
2023-01-19T08:20:03.995Z,3.52
2023-01-19T08:22:30.714Z,3.54
2023-01-19T08:24:57.452Z,3.53
2023-01-19T08:27:24.211Z,3.53
2023-01-19T08:29:50.834Z,3.54
2023-01-19T08:32:17.672Z,3.51
2023-01-19T08:34:44.329Z,3.49
2023-01-19T08:37:11.480Z,3.46
2023-01-19T08:39:38.218Z,3.45
2023-01-19T08:42:05.379Z,3.45
2023-01-19T08:44:32.155Z,3.45
2023-01-19T08:47:00.019Z,3.45
2023-01-19T08:49:26.748Z,3.46
2023-01-19T08:51:53.510Z,3.46
2023-01-19T08:54:21.792Z,3.47
2023-01-19T08:56:48.671Z,3.48
2023-01-19T08:59:15.388Z,3.50
2023-01-19T09:01:42.173Z,3.54
2023-01-19T09:04:09.089Z,3.57
2023-01-19T09:06:35.873Z,3.57
2023-01-19T09:09:02.721Z,3.64
2023-01-19T09:11:29.479Z,3.68
2023-01-19T09:13:56.220Z,3.72
2023-01-19T09:16:22.976Z,3.75
2023-01-19T09:18:49.783Z,3.80
2023-01-19T09:21:16.517Z,3.84
2023-01-19T09:23:43.278Z,3.88
2023-01-19T09:26:09.962Z,3.92
2023-01-19T09:28:37.680Z,3.96
2023-01-19T09:31:06.673Z,3.99
2023-01-19T09:33:33.702Z,4.03
2023-01-19T09:36:00.452Z,4.06
2023-01-19T09:38:31.498Z,4.10
2023-01-19T09:40:59.130Z,4.14
2023-01-19T09:43:33.933Z,4.18
2023-01-19T09:46:02.646Z,4.23
2023-01-19T09:48:47.711Z,4.27
2023-01-19T09:51:41.481Z,4.32
2023-01-19T09:54:14.579Z,4.37
2023-01-19T09:56:42.445Z,4.41
2023-01-19T09:59:21.083Z,4.45
2023-01-19T10:02:06.568Z,4.48
2023-01-19T13:27:28.555Z,6.89
2023-01-19T13:29:55.331Z,7.02
2023-01-19T13:32:24.672Z,7.02
2023-01-19T13:34:53.224Z,7.08
2023-01-19T13:37:24.498Z,7.11
2023-01-19T13:39:52.429Z,7.13
2023-01-19T13:42:29.896Z,7.15
2023-01-19T13:44:58.835Z,7.17
2023-01-19T13:47:31.098Z,7.19
2023-01-19T13:49:58.235Z,7.21
2023-01-19T13:52:26.410Z,7.24
2023-01-19T13:55:02.506Z,7.26
2023-01-19T13:57:33.858Z,7.29
2023-01-19T14:00:11.922Z,7.31
2023-01-19T14:02:42.388Z,7.33
2023-01-19T14:05:32.580Z,7.36
2023-01-19T14:08:13.024Z,7.40
2023-01-19T14:10:42.424Z,7.41
2023-01-19T14:13:26.273Z,7.44
2023-01-19T14:15:55.394Z,7.46
2023-01-19T14:18:27.259Z,7.48
2023-01-19T14:21:01.587Z,7.50
2023-01-19T14:23:38.801Z,7.52
2023-01-19T14:26:06.344Z,7.54
2023-01-19T14:28:42.376Z,7.55
2023-01-19T14:31:20.298Z,7.57
2023-01-19T14:33:48.423Z,7.59
2023-01-19T14:36:17.553Z,7.61
2023-01-19T14:38:48.135Z,7.62
2023-01-19T14:41:42.627Z,7.63
2023-01-19T14:44:10.357Z,7.61
2023-01-19T14:46:37.388Z,7.65
2023-01-19T14:49:05.435Z,7.66
2023-01-19T14:51:32.215Z,7.67
2023-01-19T14:53:59.679Z,7.68
2023-01-19T14:56:32.680Z,7.68
2023-01-19T14:59:00.934Z,7.68
2023-01-19T15:01:31.293Z,7.68
2023-01-19T15:03:58.311Z,7.69
2023-01-19T15:06:25.375Z,7.71
2023-01-19T15:08:53.521Z,7.71
2023-01-19T15:11:26.358Z,7.71
2023-01-19T15:13:53.292Z,7.73
2023-01-19T15:16:20.172Z,7.74
2023-01-19T15:18:46.951Z,7.76
2023-01-19T15:21:15.222Z,7.78
2023-01-19T15:23:42.091Z,7.79
2023-01-19T15:26:10.371Z,7.80
2023-01-19T15:28:37.084Z,7.81
2023-01-19T15:31:03.788Z,7.82
2023-01-19T15:33:34.476Z,7.83
2023-01-19T15:36:01.403Z,7.86
2023-01-19T15:38:28.191Z,7.87
2023-01-19T15:40:54.780Z,7.88
2023-01-19T15:43:21.563Z,7.90
2023-01-19T15:45:48.503Z,7.93
2023-01-19T15:48:15.240Z,7.95
2023-01-19T15:50:42.736Z,7.96
2023-01-19T15:53:16.765Z,7.98
2023-01-19T15:55:43.612Z,7.99
2023-01-19T15:58:12.478Z,8.01
2023-01-19T16:00:40.625Z,8.03
2023-01-19T16:03:07.477Z,8.03
2023-01-19T16:05:42.467Z,8.05
2023-01-19T16:08:11.225Z,8.07
2023-01-19T16:10:38.137Z,8.13
2023-01-19T16:13:04.743Z,8.15
2023-01-19T16:15:31.466Z,8.14
2023-01-19T16:17:58.477Z,8.20
2023-01-19T16:20:25.172Z,8.23
2023-01-19T16:22:51.908Z,8.23
2023-01-19T16:25:18.604Z,8.28
2023-01-19T16:27:45.338Z,8.30
2023-01-19T16:30:12.638Z,8.33
2023-01-19T16:32:39.481Z,8.36
2023-01-19T16:35:06.314Z,8.38
2023-01-19T16:37:33.143Z,8.40
2023-01-19T16:39:59.756Z,8.42
2023-01-19T16:42:26.438Z,8.44
2023-01-19T16:44:54.602Z,8.43
2023-01-19T16:47:21.347Z,8.50
2023-01-19T16:49:47.923Z,8.53
2023-01-19T16:52:14.643Z,8.56
2023-01-19T16:54:42.858Z,8.58
2023-01-19T16:57:10.056Z,8.61
2023-01-19T16:59:37.386Z,8.65
2023-01-19T17:02:04.328Z,8.67
2023-01-19T17:04:31.120Z,8.70
2023-01-19T17:06:57.964Z,8.74
2023-01-19T17:09:24.726Z,8.76
2023-01-19T17:11:51.438Z,8.78
2023-01-19T17:14:21.841Z,8.80
2023-01-19T17:16:48.759Z,8.82
2023-01-19T17:19:19.693Z,8.81
2023-01-19T17:21:48.638Z,8.85
2023-01-19T17:24:15.770Z,8.88
2023-01-19T17:26:42.720Z,8.89
2023-01-19T17:29:09.568Z,8.89
2023-01-19T17:31:36.509Z,8.89
2023-01-19T17:34:03.562Z,8.88
2023-01-19T17:36:31.327Z,8.86
2023-01-19T17:38:59.191Z,8.85
2023-01-19T17:41:28.249Z,8.84
2023-01-19T17:43:55.210Z,8.82
2023-01-19T17:46:24.065Z,8.82
2023-01-19T17:48:52.279Z,8.81
2023-01-19T17:51:19.022Z,8.81
2023-01-19T17:53:46.399Z,8.79
2023-01-19T17:56:14.656Z,8.79
2023-01-19T17:58:41.542Z,8.80
2023-01-19T18:01:10.355Z,8.82
2023-01-19T18:03:37.280Z,8.82
2023-01-19T18:06:04.198Z,8.83
2023-01-19T18:08:32.594Z,8.85
2023-01-19T18:11:00.310Z,8.86
2023-01-19T18:13:28.533Z,8.86
2023-01-19T18:16:03.075Z,8.88
2023-01-19T18:18:31.105Z,8.89
2023-01-19T18:21:01.678Z,8.85
2023-01-19T18:23:28.538Z,8.87
2023-01-19T18:26:06.349Z,8.87
2023-01-19T18:28:33.496Z,8.86
2023-01-19T18:31:00.738Z,8.87
2023-01-19T18:33:28.268Z,8.86
2023-01-19T18:35:55.183Z,8.85
2023-01-19T18:38:22.620Z,8.83
2023-01-19T18:40:49.535Z,8.83
2023-01-19T18:43:16.238Z,8.83
2023-01-19T18:45:42.940Z,8.83
2023-01-19T18:48:09.674Z,8.81
2023-01-19T18:50:37.363Z,8.78
2023-01-19T18:53:04.109Z,8.75
2023-01-19T18:55:30.790Z,8.72
2023-01-19T18:57:57.637Z,8.70
2023-01-19T20:47:48.848Z,7.68
2023-01-19T20:50:15.900Z,7.76
2023-01-19T20:52:42.913Z,7.75
2023-01-19T20:55:10.414Z,7.76
2023-01-19T20:57:37.671Z,7.77
2023-01-19T21:00:05.428Z,7.76
2023-01-19T21:02:32.696Z,7.76
2023-01-19T21:04:59.470Z,7.76
2023-01-19T21:07:26.239Z,7.76
2023-01-19T21:09:53.038Z,7.75
2023-01-19T21:12:21.574Z,7.74
2023-01-19T21:14:48.347Z,7.74
2023-01-19T21:17:15.000Z,7.75
2023-01-19T21:19:41.689Z,7.76
2023-01-19T21:22:08.387Z,7.78
2023-01-19T21:24:35.299Z,7.79
2023-01-19T21:27:02.224Z,7.80
2023-01-19T21:29:29.126Z,7.80
2023-01-19T21:31:55.806Z,7.81
2023-01-19T21:34:22.721Z,7.80
2023-01-19T21:36:49.593Z,7.81
2023-01-19T21:39:17.411Z,7.81
2023-01-19T21:41:45.099Z,7.83
2023-01-19T21:44:12.437Z,7.83
2023-01-19T21:46:39.214Z,7.84
2023-01-19T21:49:06.422Z,7.85
2023-01-19T21:51:34.706Z,7.86
2023-01-19T21:54:02.412Z,7.86
2023-01-19T21:56:29.263Z,7.87
2023-01-19T21:58:56.215Z,7.87
2023-01-19T22:01:23.689Z,7.86
2023-01-19T22:03:57.616Z,7.86
2023-01-19T22:06:25.013Z,7.83
2023-01-19T22:08:51.750Z,7.83
2023-01-19T22:11:18.806Z,7.83
2023-01-19T22:13:45.482Z,7.82
2023-01-19T22:16:13.873Z,7.80
2023-01-19T22:18:42.355Z,7.79
2023-01-19T22:21:14.200Z,7.79
2023-01-19T22:23:41.018Z,7.78
2023-01-19T22:26:07.845Z,7.77
2023-01-19T22:28:34.632Z,7.77
2023-01-19T22:31:05.265Z,7.75
2023-01-19T22:33:32.048Z,7.75
2023-01-19T22:36:19.688Z,7.74
2023-01-19T22:38:56.868Z,7.74
2023-01-19T22:41:28.456Z,7.75
2023-01-19T22:43:56.725Z,7.75
2023-01-19T22:46:25.115Z,7.75
2023-01-19T22:48:52.287Z,7.76
2023-01-19T22:51:19.300Z,7.77
2023-01-19T22:53:46.187Z,7.78
2023-01-19T22:56:17.829Z,7.78
2023-01-19T22:58:45.138Z,7.77
2023-01-19T23:01:26.033Z,7.79
2023-01-19T23:03:53.419Z,7.80
2023-01-19T23:06:27.753Z,7.80
2023-01-19T23:08:55.234Z,7.81
2023-01-19T23:11:29.819Z,7.82
2023-01-19T23:13:57.588Z,7.83
2023-01-19T23:16:24.535Z,7.85
2023-01-19T23:18:55.560Z,7.86
2023-01-19T23:21:23.123Z,7.87
2023-01-19T23:23:53.204Z,7.87
2023-01-19T23:26:19.962Z,7.89
2023-01-19T23:28:46.767Z,7.91
2023-01-19T23:31:40.189Z,7.93
2023-01-19T23:34:07.980Z,7.93
2023-01-19T23:36:36.088Z,7.94
2023-01-19T23:39:06.647Z,7.95
2023-01-19T23:41:34.616Z,7.97
2023-01-19T23:44:01.430Z,7.99
2023-01-19T23:46:28.462Z,7.99
2023-01-19T23:48:55.102Z,8.00
2023-01-19T23:51:23.594Z,8.00
2023-01-19T23:53:50.338Z,8.01
2023-01-19T23:56:19.886Z,8.01
2023-01-19T23:58:48.244Z,8.02
